createdAt,value
2023-05-24T00:02:34.309Z,32.30
2023-05-24T00:07:35.880Z,32.50
2023-05-24T00:12:37.418Z,32.40
2023-05-24T00:17:38.931Z,32.40
2023-05-24T00:22:40.459Z,32.60
2023-05-24T00:27:41.932Z,32.50
2023-05-24T00:32:43.425Z,32.40
2023-05-24T00:37:44.963Z,32.50
2023-05-24T00:42:46.456Z,32.80
2023-05-24T00:47:47.974Z,32.60
2023-05-24T00:52:49.507Z,32.70
2023-05-24T00:57:51.006Z,32.60
2023-05-24T01:02:52.540Z,32.60
2023-05-24T01:07:54.058Z,32.50
2023-05-24T01:12:55.522Z,32.50
2023-05-24T01:17:57.025Z,32.60
2023-05-24T01:22:58.522Z,32.50
2023-05-24T01:28:00.546Z,32.80
2023-05-24T01:33:02.059Z,32.60
2023-05-24T01:38:03.554Z,32.70
2023-05-24T01:43:04.996Z,32.50
2023-05-24T01:48:06.471Z,32.60
2023-05-24T01:53:07.940Z,32.70
2023-05-24T01:58:09.428Z,32.60
2023-05-24T02:03:10.910Z,32.60
2023-05-24T02:08:12.382Z,32.60
2023-05-24T02:13:13.819Z,32.60
2023-05-24T02:18:15.255Z,32.60
2023-05-24T02:23:16.702Z,32.70
2023-05-24T02:28:18.152Z,32.70
2023-05-24T02:33:19.622Z,32.70
2023-05-24T02:38:21.104Z,32.70
2023-05-24T02:43:22.561Z,32.60
2023-05-24T02:48:24.020Z,32.70
2023-05-24T02:53:25.483Z,32.70
2023-05-24T02:58:26.964Z,32.70
2023-05-24T03:03:28.515Z,32.80
2023-05-24T03:08:29.998Z,32.70
2023-05-24T03:13:31.438Z,32.80
2023-05-24T03:18:32.892Z,32.80
2023-05-24T03:23:34.366Z,32.80
2023-05-24T03:28:35.842Z,32.60
2023-05-24T03:33:37.325Z,32.80
2023-05-24T03:38:38.792Z,32.80
2023-05-24T03:43:40.242Z,32.80
2023-05-24T03:48:41.715Z,32.80
2023-05-24T03:53:43.182Z,32.80
2023-05-24T03:58:44.630Z,32.80
2023-05-24T04:03:46.214Z,32.80
2023-05-24T04:08:47.746Z,32.70
2023-05-24T04:13:49.214Z,32.80
2023-05-24T04:18:50.781Z,32.90
2023-05-24T04:23:52.278Z,32.90
2023-05-24T04:28:53.738Z,33.00
2023-05-24T04:33:55.201Z,33.00
2023-05-24T04:38:56.660Z,33.00
2023-05-24T04:43:58.292Z,33.10
2023-05-24T04:48:59.761Z,33.00
2023-05-24T04:54:01.219Z,33.00
2023-05-24T04:59:02.669Z,33.10
2023-05-24T05:04:04.209Z,33.10
2023-05-24T05:09:05.788Z,33.20
2023-05-24T05:14:07.259Z,33.20
2023-05-24T05:19:08.712Z,33.10
2023-05-24T05:24:10.154Z,33.20
2023-05-24T05:29:11.609Z,33.30
2023-05-24T05:34:13.065Z,33.20
2023-05-24T05:39:14.527Z,33.40
2023-05-24T05:44:15.969Z,33.40
2023-05-24T05:49:17.436Z,33.40
2023-05-24T05:54:18.909Z,33.40
2023-05-24T05:59:20.393Z,33.40
2023-05-24T06:04:21.949Z,33.50
2023-05-24T06:09:23.449Z,33.40
2023-05-24T06:14:24.936Z,33.30
2023-05-24T06:19:26.437Z,33.30
2023-05-24T06:24:27.889Z,33.40
2023-05-24T06:29:29.338Z,33.40
2023-05-24T06:34:30.809Z,33.50
2023-05-24T06:39:32.307Z,33.50
2023-05-24T06:44:33.786Z,33.50
2023-05-24T06:49:35.223Z,33.50
2023-05-24T06:54:36.723Z,33.50
2023-05-24T06:59:38.274Z,33.60
2023-05-24T07:04:39.828Z,34.10
2023-05-24T07:09:41.338Z,33.40
2023-05-24T07:14:42.791Z,33.50
2023-05-24T07:19:44.226Z,33.50
2023-05-24T07:24:45.757Z,33.50
2023-05-24T07:29:48.427Z,33.40
2023-05-24T07:34:50.159Z,34.00
2023-05-24T07:39:51.640Z,33.40
2023-05-24T07:44:53.117Z,33.30
2023-05-24T07:49:54.579Z,33.30
2023-05-24T07:54:56.013Z,33.30
2023-05-24T07:59:57.460Z,33.20
2023-05-24T08:04:58.925Z,33.30
2023-05-24T08:10:00.385Z,33.20
2023-05-24T08:15:01.835Z,33.10
2023-05-24T08:20:03.337Z,33.10
2023-05-24T08:25:04.834Z,33.10
2023-05-24T08:30:06.277Z,33.00
2023-05-24T08:35:20.415Z,33.20
2023-05-24T08:40:23.251Z,33.00
2023-05-24T08:45:24.706Z,32.90
2023-05-24T08:50:26.146Z,32.80
2023-05-24T08:55:27.591Z,32.80
2023-05-24T09:00:29.049Z,32.80
2023-05-24T09:05:30.516Z,32.80
2023-05-24T09:10:44.943Z,32.90
2023-05-24T09:15:53.657Z,32.80
2023-05-24T09:20:55.480Z,32.80
2023-05-24T09:25:57.085Z,32.80
2023-05-24T09:30:58.693Z,32.80
2023-05-24T09:36:00.216Z,32.90
2023-05-24T09:41:01.671Z,32.90
2023-05-24T09:46:03.118Z,32.60
2023-05-24T09:51:04.590Z,32.60
2023-05-24T09:56:06.046Z,32.60
2023-05-24T10:01:07.542Z,32.60
2023-05-24T10:06:09.063Z,32.60
2023-05-24T10:11:10.533Z,32.50
2023-05-24T10:16:12.047Z,32.50
2023-05-24T10:21:13.604Z,32.50
2023-05-24T10:26:15.226Z,32.50
2023-05-24T10:31:16.874Z,32.50
2023-05-24T10:36:18.401Z,32.50
2023-05-24T10:41:19.907Z,32.40
2023-05-24T10:46:21.442Z,32.40
2023-05-24T10:51:22.878Z,32.30
2023-05-24T10:56:24.338Z,32.40
2023-05-24T11:01:25.873Z,32.30
2023-05-24T11:06:27.337Z,32.40
2023-05-24T11:11:31.342Z,32.40
2023-05-24T11:16:33.854Z,32.40
2023-05-24T11:21:35.334Z,32.90
2023-05-24T11:26:36.789Z,33.30
2023-05-24T11:31:41.624Z,33.00
2023-05-24T11:36:44.729Z,32.90
2023-05-24T11:41:46.162Z,32.90
2023-05-24T11:46:47.618Z,32.80
2023-05-24T11:51:49.072Z,32.90
2023-05-24T11:56:50.527Z,32.70
2023-05-24T12:01:51.963Z,32.80
2023-05-24T12:06:53.444Z,32.80
2023-05-24T12:11:54.895Z,32.80
2023-05-24T12:16:56.384Z,33.00
2023-05-24T12:21:57.839Z,32.80
2023-05-24T12:26:59.269Z,33.00
2023-05-24T12:32:00.771Z,32.90
2023-05-24T12:37:02.217Z,32.60
2023-05-24T12:42:03.723Z,32.60
2023-05-24T12:47:05.240Z,32.70
2023-05-24T12:52:07.046Z,32.70
2023-05-24T12:57:08.617Z,32.80
2023-05-24T13:02:10.071Z,32.80
2023-05-24T13:07:11.502Z,32.80
2023-05-24T13:12:12.953Z,32.90
2023-05-24T13:17:14.431Z,32.80
2023-05-24T13:22:15.930Z,33.00
2023-05-24T13:27:17.389Z,32.70
2023-05-24T13:32:18.850Z,33.10
2023-05-24T13:37:20.303Z,33.10
2023-05-24T13:42:21.794Z,33.10
2023-05-24T13:47:35.374Z,32.90
2023-05-24T13:52:41.138Z,33.10
2023-05-24T13:57:50.538Z,33.10
2023-05-24T14:02:53.551Z,33.20
2023-05-24T14:07:55.179Z,33.10
2023-05-24T14:13:16.094Z,33.00
2023-05-24T14:18:18.214Z,33.60
2023-05-24T14:23:19.694Z,33.20
2023-05-24T14:28:21.141Z,34.00
2023-05-24T14:33:22.598Z,33.50
2023-05-24T14:38:24.089Z,33.50
2023-05-24T14:43:25.541Z,33.40
2023-05-24T14:48:26.992Z,33.30
2023-05-24T14:53:28.492Z,33.30
2023-05-24T14:58:29.956Z,33.30
2023-05-24T15:03:31.544Z,33.40
2023-05-24T15:08:33.106Z,33.30
2023-05-24T15:13:34.561Z,33.40
2023-05-24T15:18:36.004Z,33.50
2023-05-24T15:23:39.569Z,33.40
2023-05-24T15:28:41.021Z,33.60
2023-05-24T15:33:42.494Z,33.50
2023-05-24T15:38:44.056Z,33.60
2023-05-24T15:43:45.510Z,33.60
2023-05-24T15:48:46.965Z,33.70
2023-05-24T15:53:48.468Z,33.80
2023-05-24T15:58:49.952Z,33.90
2023-05-24T16:03:51.460Z,34.00
2023-05-24T16:08:53.040Z,34.10
2023-05-24T16:13:54.511Z,34.30
2023-05-24T16:18:55.980Z,34.50
2023-05-24T16:23:58.737Z,34.70
2023-05-24T16:29:01.655Z,35.20
2023-05-24T16:34:03.149Z,35.30
2023-05-24T16:39:04.622Z,35.50
2023-05-24T16:44:06.069Z,35.50
2023-05-24T16:49:07.534Z,35.70
2023-05-24T16:54:09.327Z,35.70
2023-05-24T16:59:10.948Z,35.80
2023-05-24T17:04:12.431Z,35.80
2023-05-24T17:09:13.906Z,35.90
2023-05-24T17:14:15.381Z,36.10
2023-05-24T17:19:16.827Z,36.20
2023-05-24T17:24:18.276Z,36.00
2023-05-24T17:29:19.753Z,36.10
2023-05-24T17:34:21.202Z,37.10
2023-05-24T17:39:22.657Z,36.80
2023-05-24T17:44:24.119Z,37.10
2023-05-24T17:49:25.572Z,37.00
2023-05-24T17:54:27.024Z,37.40
2023-05-24T17:59:28.532Z,37.20
2023-05-24T18:04:30.034Z,37.50
2023-05-24T18:09:31.534Z,37.20
2023-05-24T18:14:33.084Z,37.60
2023-05-24T18:19:34.578Z,37.70
2023-05-24T18:24:36.006Z,37.40
2023-05-24T18:29:37.456Z,37.80
2023-05-24T18:34:38.923Z,37.70
2023-05-24T18:39:40.392Z,37.40
2023-05-24T18:44:41.849Z,37.30
2023-05-24T18:49:43.337Z,37.40
2023-05-24T18:54:44.925Z,37.70
2023-05-24T18:59:46.398Z,37.60
2023-05-24T19:04:47.844Z,37.60
2023-05-24T19:09:49.306Z,37.60
2023-05-24T19:14:50.749Z,37.60
2023-05-24T19:19:52.349Z,38.20
2023-05-24T19:24:53.896Z,37.60
2023-05-24T19:29:55.346Z,37.60
2023-05-24T19:34:56.810Z,37.80
2023-05-24T19:39:58.245Z,37.80
2023-05-24T19:44:59.677Z,37.70
2023-05-24T19:50:01.121Z,37.60
2023-05-24T19:55:02.568Z,37.60
2023-05-24T20:00:04.004Z,37.70
2023-05-24T20:05:05.462Z,37.40
2023-05-24T20:10:06.965Z,37.80
2023-05-24T20:15:08.398Z,37.80
2023-05-24T20:20:09.900Z,37.90
2023-05-24T20:25:11.375Z,37.90
2023-05-24T20:30:12.918Z,37.80
2023-05-24T20:35:14.347Z,37.70
2023-05-24T20:40:15.785Z,37.70
2023-05-24T20:45:17.247Z,37.70
2023-05-24T20:50:18.708Z,37.60
2023-05-24T20:55:20.150Z,37.60
2023-05-24T21:00:21.598Z,37.60
2023-05-24T21:05:23.046Z,37.50
2023-05-24T21:10:24.615Z,37.40
2023-05-24T21:15:26.071Z,37.40
2023-05-24T21:20:27.562Z,37.40
2023-05-24T21:25:29.085Z,37.20
2023-05-24T21:30:30.532Z,37.30
2023-05-24T21:35:31.987Z,37.70
2023-05-24T21:40:33.471Z,37.70
2023-05-24T21:45:34.953Z,37.60
2023-05-24T21:50:36.428Z,37.50
2023-05-24T21:55:37.900Z,37.40
2023-05-24T22:00:39.365Z,37.40
2023-05-24T22:05:40.822Z,37.40
2023-05-24T22:10:42.267Z,37.30
2023-05-24T22:15:43.949Z,37.30
2023-05-24T22:20:45.548Z,37.30
2023-05-24T22:25:47.019Z,37.30
2023-05-24T22:30:48.475Z,37.20
2023-05-24T22:35:49.938Z,37.20
2023-05-24T22:40:51.393Z,37.20
2023-05-24T22:45:52.894Z,37.30
2023-05-24T22:50:54.385Z,37.30
2023-05-24T22:55:55.841Z,37.30
2023-05-24T23:00:57.306Z,37.20
2023-05-24T23:05:58.950Z,37.30
2023-05-24T23:11:00.397Z,37.20
2023-05-24T23:16:01.845Z,37.20
2023-05-24T23:21:04.410Z,37.20
2023-05-24T23:26:05.857Z,37.20
2023-05-24T23:31:07.350Z,37.30
2023-05-24T23:36:08.849Z,37.20
2023-05-24T23:41:10.290Z,37.20
2023-05-24T23:46:11.812Z,37.30
2023-05-24T23:51:13.286Z,37.30
2023-05-24T23:56:14.754Z,37.20
